createdAt,value
2024-02-02T00:02:11.456Z,100050.69
2024-02-02T00:04:42.248Z,100055.88
2024-02-02T00:07:11.969Z,100050.31
2024-02-02T00:10:00.486Z,100051.50
2024-02-02T00:12:30.499Z,100036.25
2024-02-02T00:15:00.271Z,100038.22
2024-02-02T00:17:31.758Z,100054.53
2024-02-02T00:20:20.951Z,100050.19
2024-02-02T00:22:51.293Z,100046.13
2024-02-02T00:25:40.547Z,100059.06
2024-02-02T00:28:28.259Z,100044.88
2024-02-02T00:30:57.637Z,100041.38
2024-02-02T00:33:27.749Z,100048.88
2024-02-02T00:36:17.581Z,100049.25
2024-02-02T00:38:47.358Z,100042.38
2024-02-02T00:41:16.890Z,100061.03
2024-02-02T00:43:46.576Z,100054.53
2024-02-02T00:46:34.276Z,100024.09
2024-02-02T00:49:24.883Z,100056.97
2024-02-02T00:51:55.779Z,100054.56
2024-02-02T00:54:43.496Z,100057.72
2024-02-02T00:57:14.278Z,100044.56
2024-02-02T00:59:44.237Z,100047.00
2024-02-02T01:02:32.377Z,100047.53
2024-02-02T01:05:20.256Z,100035.41
2024-02-02T01:07:51.321Z,100036.41
2024-02-02T01:10:20.696Z,100039.03
2024-02-02T01:12:50.259Z,100052.00
2024-02-02T01:15:19.847Z,100043.34
2024-02-02T01:17:49.633Z,100035.72
2024-02-02T01:20:19.598Z,100041.31
2024-02-02T01:23:08.836Z,100024.13
2024-02-02T01:25:56.543Z,100037.69
2024-02-02T01:28:26.223Z,100044.69
2024-02-02T01:31:13.864Z,100048.13
2024-02-02T01:33:43.647Z,100048.00
2024-02-02T01:36:13.603Z,100042.47
2024-02-02T01:38:45.266Z,100033.03
2024-02-02T01:41:33.390Z,100042.66
2024-02-02T01:44:21.452Z,100039.00
2024-02-02T01:47:10.169Z,100058.94
2024-02-02T01:49:59.119Z,100054.69
2024-02-02T01:52:29.214Z,100066.38
2024-02-02T01:55:18.936Z,100050.47
2024-02-02T01:57:48.445Z,100053.31
2024-02-02T02:00:18.490Z,100058.22
2024-02-02T02:03:06.958Z,100069.94
2024-02-02T02:05:56.142Z,100066.88
2024-02-02T02:08:44.300Z,100042.16
2024-02-02T02:11:34.258Z,100056.69
2024-02-02T02:14:04.440Z,100060.31
2024-02-02T02:16:33.952Z,100059.47
2024-02-02T02:19:21.962Z,100040.25
2024-02-02T02:22:11.055Z,100062.84
2024-02-02T02:24:41.143Z,100049.50
2024-02-02T02:27:28.816Z,100033.25
2024-02-02T02:30:16.628Z,100043.97
2024-02-02T02:32:46.494Z,100065.19
2024-02-02T02:35:34.431Z,100068.69
2024-02-02T02:38:05.559Z,100054.03
2024-02-02T02:40:35.487Z,100073.19
2024-02-02T02:43:05.137Z,100068.22
2024-02-02T02:45:35.148Z,100073.59
2024-02-02T02:48:23.199Z,100085.22
2024-02-02T02:51:11.311Z,100088.84
2024-02-02T02:53:41.859Z,100078.72
2024-02-02T02:56:29.615Z,100080.44
2024-02-02T02:58:59.368Z,100088.59
2024-02-02T03:01:47.025Z,100090.63
2024-02-02T03:04:16.585Z,100071.66
2024-02-02T03:07:06.379Z,100067.06
2024-02-02T03:09:38.384Z,100084.47
2024-02-02T03:12:26.740Z,100096.00
2024-02-02T03:14:56.103Z,100084.19
2024-02-02T03:17:44.389Z,100094.03
2024-02-02T03:20:32.229Z,100087.50
2024-02-02T03:23:01.870Z,100090.69
2024-02-02T03:25:51.507Z,100089.09
2024-02-02T03:28:21.313Z,100085.63
2024-02-02T03:31:09.750Z,100084.84
2024-02-02T03:33:58.996Z,100095.41
2024-02-02T03:36:28.694Z,100089.19
2024-02-02T03:39:17.215Z,100101.56
2024-02-02T03:42:07.114Z,100112.25
2024-02-02T03:44:35.801Z,100103.94
2024-02-02T03:47:05.725Z,100110.91
2024-02-02T03:49:35.612Z,100127.00
2024-02-02T03:52:25.284Z,100114.47
2024-02-02T03:54:55.111Z,100114.81
2024-02-02T03:57:26.141Z,100085.00
2024-02-02T03:59:55.960Z,100122.34
2024-02-02T04:02:46.791Z,100118.19
2024-02-02T04:05:17.253Z,100121.25
2024-02-02T04:07:46.689Z,100129.09
2024-02-02T04:10:35.268Z,100134.47
2024-02-02T04:13:06.400Z,100141.28
2024-02-02T04:15:36.662Z,100141.78
2024-02-02T04:18:07.785Z,100144.91
2024-02-02T04:20:37.946Z,100149.69
2024-02-02T04:23:07.680Z,100145.56
2024-02-02T04:25:37.164Z,100170.84
2024-02-02T04:28:09.784Z,100166.31
2024-02-02T04:30:58.160Z,100176.44
2024-02-02T04:33:27.983Z,100177.47
2024-02-02T04:35:57.753Z,100181.00
2024-02-02T04:38:46.727Z,100181.31
2024-02-02T04:41:35.778Z,100169.41
2024-02-02T04:44:25.811Z,100170.31
2024-02-02T04:47:13.855Z,100200.28
2024-02-02T04:50:01.796Z,100176.88
2024-02-02T04:52:32.176Z,100196.78
2024-02-02T04:55:02.776Z,100193.28
2024-02-02T04:57:32.717Z,100210.19
2024-02-02T05:00:22.302Z,100202.84
2024-02-02T05:03:10.704Z,100212.34
2024-02-02T05:05:58.985Z,100209.88
2024-02-02T05:08:29.236Z,100219.69
2024-02-02T05:11:02.503Z,100216.63
2024-02-02T05:13:32.642Z,100211.94
2024-02-02T05:16:03.667Z,100204.91
2024-02-02T05:18:35.184Z,100222.63
2024-02-02T05:21:05.076Z,100223.44
2024-02-02T05:23:36.328Z,100214.41
2024-02-02T05:26:07.337Z,100240.78
2024-02-02T05:28:55.682Z,100242.41
2024-02-02T05:31:47.544Z,100243.19
2024-02-02T05:34:36.256Z,100254.38
2024-02-02T05:37:06.371Z,100254.81
2024-02-02T05:39:36.327Z,100233.69
2024-02-02T05:42:24.431Z,100258.50
2024-02-02T05:45:13.003Z,100249.59
2024-02-02T05:48:02.855Z,100260.31
2024-02-02T05:50:51.303Z,100265.06
2024-02-02T05:53:21.202Z,100267.56
2024-02-02T05:55:50.502Z,100278.16
2024-02-02T05:58:38.771Z,100283.56
2024-02-02T06:01:08.866Z,100272.19
2024-02-02T06:03:40.464Z,100259.06
2024-02-02T06:06:10.304Z,100287.81
2024-02-02T06:08:40.246Z,100287.88
2024-02-02T06:11:10.425Z,100273.31
2024-02-02T06:13:40.199Z,100284.31
2024-02-02T06:16:28.865Z,100284.28
2024-02-02T06:19:18.486Z,100301.09
2024-02-02T06:22:06.842Z,100290.03
2024-02-02T06:24:36.315Z,100288.81
2024-02-02T06:27:26.582Z,100292.84
2024-02-02T06:29:57.065Z,100294.72
2024-02-02T06:32:26.774Z,100303.50
2024-02-02T06:35:01.541Z,100297.16
2024-02-02T06:37:32.387Z,100313.38
2024-02-02T06:40:09.991Z,100304.88
2024-02-02T06:42:40.319Z,100322.44
2024-02-02T06:45:10.526Z,100308.56
2024-02-02T06:47:40.507Z,100312.69
2024-02-02T06:50:14.045Z,100323.44
2024-02-02T06:52:44.830Z,100325.53
2024-02-02T06:55:33.387Z,100329.59
2024-02-02T06:58:39.950Z,100324.66
2024-02-02T07:01:10.188Z,100335.81
2024-02-02T07:03:40.495Z,100333.38
2024-02-02T07:06:11.950Z,100333.09
2024-02-02T07:09:05.592Z,100339.22
2024-02-02T07:11:57.819Z,100328.84
2024-02-02T07:14:52.688Z,100333.03
2024-02-02T07:17:34.305Z,100334.25
2024-02-02T07:20:10.178Z,100335.53
2024-02-02T07:22:42.337Z,100335.47
2024-02-02T07:25:34.273Z,100340.31
2024-02-02T07:28:33.497Z,100331.50
2024-02-02T07:31:03.420Z,100351.16
2024-02-02T07:33:54.444Z,100351.84
2024-02-02T07:36:33.517Z,100354.81
2024-02-02T07:39:29.218Z,100347.50
2024-02-02T07:42:17.754Z,100357.63
2024-02-02T07:44:48.098Z,100332.16
2024-02-02T07:47:17.866Z,100364.63
2024-02-02T07:49:47.550Z,100347.03
2024-02-02T07:52:17.277Z,100359.47
2024-02-02T07:55:07.159Z,100357.47
2024-02-02T07:57:55.460Z,100359.34
2024-02-02T08:00:25.419Z,100342.75
2024-02-02T08:02:55.494Z,100358.03
2024-02-02T08:05:43.989Z,100346.75
2024-02-02T08:08:34.436Z,100359.13
2024-02-02T08:11:05.561Z,100363.34
2024-02-02T08:13:38.739Z,100353.03
2024-02-02T08:16:09.919Z,100347.22
2024-02-02T08:18:40.691Z,100323.72
2024-02-02T08:21:29.480Z,100346.09
2024-02-02T08:24:18.167Z,100364.38
2024-02-02T08:26:49.736Z,100369.84
2024-02-02T08:29:19.557Z,100375.75
2024-02-02T08:31:49.280Z,100373.06
2024-02-02T08:34:19.217Z,100375.81
2024-02-02T08:37:07.711Z,100368.47
2024-02-02T08:39:58.042Z,100358.72
2024-02-02T08:42:47.650Z,100369.41
2024-02-02T08:45:57.616Z,100377.53
2024-02-02T08:48:37.193Z,100364.94
2024-02-02T08:51:53.470Z,100381.72
2024-02-02T08:54:35.682Z,100378.41
2024-02-02T08:57:35.841Z,100379.53
2024-02-02T09:00:18.458Z,100380.53
2024-02-02T09:03:38.482Z,100396.25
2024-02-02T09:06:16.067Z,100394.75
2024-02-02T09:08:45.879Z,100388.88
2024-02-02T09:11:22.579Z,100387.94
2024-02-02T09:14:17.002Z,100379.81
2024-02-02T09:17:11.345Z,100392.59
2024-02-02T09:19:43.516Z,100391.53
2024-02-02T09:22:17.434Z,100399.19
2024-02-02T09:24:49.268Z,100394.91
2024-02-02T09:27:33.529Z,100385.28
2024-02-02T09:30:26.420Z,100369.75
2024-02-02T09:33:41.910Z,100377.19
2024-02-02T09:36:13.337Z,100394.44
2024-02-02T09:38:56.973Z,100381.00
2024-02-02T09:41:55.118Z,100367.25
2024-02-02T09:44:48.423Z,100399.31
2024-02-02T09:47:47.863Z,100413.66
2024-02-02T09:50:50.598Z,100384.41
2024-02-02T09:53:44.617Z,100380.94
2024-02-02T09:56:24.941Z,100400.47
2024-02-02T09:59:01.841Z,100399.69
2024-02-02T10:02:03.947Z,100413.22
2024-02-02T10:05:02.295Z,100413.50
2024-02-02T10:08:04.975Z,100407.41
2024-02-02T10:10:56.010Z,100420.81
2024-02-02T10:13:41.221Z,100422.63
2024-02-02T10:16:37.376Z,100421.50
2024-02-02T10:19:55.226Z,100418.63
2024-02-02T10:22:42.521Z,100415.59
2024-02-02T10:25:27.700Z,100410.16
2024-02-02T10:28:32.201Z,100416.00
2024-02-02T10:31:16.630Z,100412.41
2024-02-02T10:33:59.033Z,100424.28
2024-02-02T10:37:01.337Z,100408.66
2024-02-02T10:40:02.234Z,100402.88
2024-02-02T10:43:12.475Z,100428.06
2024-02-02T10:45:50.667Z,100431.97
2024-02-02T10:49:01.038Z,100421.31
2024-02-02T10:51:37.903Z,100430.94
2024-02-02T10:54:38.040Z,100425.06
2024-02-02T10:57:32.472Z,100422.63
2024-02-02T11:00:12.065Z,100417.44
2024-02-02T11:03:07.646Z,100424.41
2024-02-02T11:06:08.214Z,100418.53
2024-02-02T11:08:43.308Z,100417.56
2024-02-02T11:11:38.057Z,100417.72
2024-02-02T11:14:34.785Z,100426.34
2024-02-02T11:17:16.955Z,100420.28
2024-02-02T11:20:27.436Z,100427.78
2024-02-02T11:23:03.174Z,100437.13
2024-02-02T11:25:40.891Z,100436.47
2024-02-02T11:28:19.476Z,100433.78
2024-02-02T11:30:59.171Z,100434.59
2024-02-02T11:33:56.739Z,100416.25
2024-02-02T11:37:01.888Z,100400.50
2024-02-02T11:39:41.109Z,100433.91
2024-02-02T11:42:16.238Z,100430.59
2024-02-02T11:44:50.301Z,100427.81
2024-02-02T11:47:22.044Z,100435.59
2024-02-02T11:50:02.535Z,100412.06
2024-02-02T11:52:34.235Z,100436.16
2024-02-02T11:55:15.577Z,100448.91
2024-02-02T11:57:49.627Z,100432.31
2024-02-02T12:00:31.770Z,100427.13
2024-02-02T12:03:31.046Z,100434.91
2024-02-02T12:06:14.814Z,100437.78
2024-02-02T12:09:16.025Z,100425.69
2024-02-02T12:11:50.893Z,100430.38
2024-02-02T12:14:46.932Z,100425.69
2024-02-02T12:17:19.004Z,100429.75
2024-02-02T12:19:52.465Z,100401.00
2024-02-02T12:22:24.466Z,100423.53
2024-02-02T12:25:15.103Z,100407.00
2024-02-02T12:27:44.501Z,100388.47
2024-02-02T12:30:14.412Z,100426.13
2024-02-02T12:32:53.658Z,100410.44
2024-02-02T12:35:43.558Z,100417.06
2024-02-02T12:38:23.344Z,100411.78
2024-02-02T12:41:11.554Z,100397.09
2024-02-02T12:43:42.026Z,100388.31
2024-02-02T12:46:46.346Z,100399.38
2024-02-02T12:49:16.827Z,100382.16
2024-02-02T12:52:05.254Z,100388.81
2024-02-02T12:54:41.531Z,100396.59
2024-02-02T12:57:11.552Z,100385.06
2024-02-02T12:59:41.657Z,100385.97
2024-02-02T13:02:15.139Z,100388.06
2024-02-02T13:04:45.061Z,100405.56
2024-02-02T13:07:33.536Z,100413.13
2024-02-02T13:10:06.980Z,100412.97
2024-02-02T13:12:41.001Z,100413.28
2024-02-02T13:15:32.129Z,100412.06
2024-02-02T13:18:04.016Z,100407.34
2024-02-02T13:20:35.319Z,100411.25
2024-02-02T13:23:26.510Z,100409.06
2024-02-02T13:26:04.836Z,100415.81
2024-02-02T13:28:40.524Z,100416.72
2024-02-02T13:31:17.123Z,100422.75
2024-02-02T13:34:06.041Z,100424.75
2024-02-02T13:37:03.350Z,100430.34
2024-02-02T13:39:54.590Z,100435.03
2024-02-02T13:42:29.731Z,100420.16
2024-02-02T13:45:18.631Z,100400.16
2024-02-02T13:47:57.076Z,100387.81
2024-02-02T13:50:39.415Z,100423.13
2024-02-02T13:53:10.515Z,100424.06
2024-02-02T13:55:59.017Z,100431.59
2024-02-02T13:58:29.882Z,100423.44
2024-02-02T14:01:00.057Z,100410.47
2024-02-02T14:03:49.453Z,100409.72
2024-02-02T14:06:20.968Z,100428.28
2024-02-02T14:09:09.927Z,100387.00
2024-02-02T14:11:39.752Z,100409.13
2024-02-02T14:14:10.775Z,100420.03
2024-02-02T14:16:41.124Z,100430.53
2024-02-02T14:19:12.061Z,100436.81
2024-02-02T14:21:41.670Z,100414.50
2024-02-02T14:24:13.076Z,100438.50
2024-02-02T14:26:50.062Z,100435.31
2024-02-02T14:29:44.105Z,100440.16
2024-02-02T14:32:14.041Z,100431.88
2024-02-02T14:34:43.692Z,100440.38
2024-02-02T14:37:16.126Z,100431.69
2024-02-02T14:40:05.189Z,100440.59
2024-02-02T14:42:35.069Z,100433.00
2024-02-02T14:45:07.482Z,100427.31
2024-02-02T14:47:37.456Z,100418.06
2024-02-02T14:50:26.976Z,100426.00
2024-02-02T14:53:15.041Z,100435.25
2024-02-02T14:55:44.513Z,100439.47
2024-02-02T14:58:15.038Z,100434.63
2024-02-02T15:00:47.602Z,100440.28
2024-02-02T15:03:36.047Z,100428.94
2024-02-02T15:06:06.572Z,100435.94
2024-02-02T15:08:55.192Z,100429.69
2024-02-02T15:11:25.056Z,100440.16
2024-02-02T15:13:54.940Z,100442.28
2024-02-02T15:16:45.061Z,100436.38
2024-02-02T15:19:32.800Z,100451.59
2024-02-02T15:22:21.904Z,100450.00
2024-02-02T15:24:51.839Z,100451.69
2024-02-02T15:27:21.835Z,100439.31
2024-02-02T15:29:51.443Z,100451.09
2024-02-02T15:32:23.032Z,100455.84
2024-02-02T15:34:53.150Z,100457.75
2024-02-02T15:37:47.924Z,100457.34
2024-02-02T15:40:18.610Z,100457.72
2024-02-02T15:42:51.349Z,100449.38
2024-02-02T15:45:40.250Z,100458.81
2024-02-02T15:48:12.648Z,100463.53
2024-02-02T15:51:01.328Z,100446.09
2024-02-02T15:53:32.166Z,100457.28
2024-02-02T15:56:22.359Z,100463.88
2024-02-02T15:59:11.597Z,100452.13
2024-02-02T16:02:01.108Z,100472.03
2024-02-02T16:04:59.091Z,100467.44
2024-02-02T16:07:30.130Z,100469.31
2024-02-02T16:10:00.548Z,100462.84
2024-02-02T16:12:43.707Z,100460.16
2024-02-02T16:15:16.241Z,100461.19
2024-02-02T16:18:07.050Z,100457.97
2024-02-02T16:20:57.263Z,100434.47
2024-02-02T16:23:27.543Z,100463.16
2024-02-02T16:26:19.150Z,100466.00
2024-02-02T16:28:57.669Z,100464.22
2024-02-02T16:31:28.586Z,100452.41
2024-02-02T16:34:17.549Z,100458.78
2024-02-02T16:37:06.891Z,100446.63
2024-02-02T16:39:43.409Z,100449.09
2024-02-02T16:42:32.209Z,100464.28
2024-02-02T16:45:02.625Z,100463.22
2024-02-02T16:47:54.458Z,100458.50
2024-02-02T16:50:26.381Z,100449.63
2024-02-02T16:53:16.468Z,100457.47
2024-02-02T16:55:46.378Z,100453.19
2024-02-02T16:58:17.330Z,100427.66
2024-02-02T17:00:48.549Z,100448.06
2024-02-02T17:03:19.058Z,100460.78
2024-02-02T17:06:10.587Z,100466.66
2024-02-02T17:09:00.280Z,100448.69
2024-02-02T17:11:49.764Z,100466.75
2024-02-02T17:14:20.757Z,100437.31
2024-02-02T17:17:09.083Z,100462.69
2024-02-02T17:19:41.070Z,100462.38
2024-02-02T17:22:16.922Z,100435.06
2024-02-02T17:25:07.069Z,100447.59
2024-02-02T17:27:56.514Z,100446.19
2024-02-02T17:30:47.074Z,100432.78
2024-02-02T17:33:35.472Z,100462.50
2024-02-02T17:36:22.775Z,100462.75
2024-02-02T17:38:53.831Z,100453.25
2024-02-02T17:41:44.363Z,100452.78
2024-02-02T17:44:32.262Z,100447.56
2024-02-02T17:47:02.092Z,100433.75
2024-02-02T17:49:41.362Z,100461.97
2024-02-02T17:52:18.255Z,100456.63
2024-02-02T17:54:48.356Z,100446.47
2024-02-02T17:57:38.012Z,100440.94
2024-02-02T18:00:09.137Z,100456.53
2024-02-02T18:03:00.214Z,100449.69
2024-02-02T18:05:30.451Z,100447.91
2024-02-02T18:08:03.592Z,100446.25
2024-02-02T18:10:34.933Z,100418.19
2024-02-02T18:13:24.510Z,100435.03
2024-02-02T18:15:55.392Z,100443.13
2024-02-02T18:18:27.454Z,100434.69
2024-02-02T18:20:58.021Z,100448.84
2024-02-02T18:23:46.148Z,100443.44
2024-02-02T18:26:16.853Z,100445.56
2024-02-02T18:29:06.598Z,100447.97
2024-02-02T18:31:51.597Z,100439.66
2024-02-02T18:34:38.832Z,100442.75
2024-02-02T18:37:35.099Z,100446.34
2024-02-02T18:40:05.629Z,100448.06
2024-02-02T18:42:56.600Z,100445.03
2024-02-02T18:45:49.114Z,100423.97
2024-02-02T18:48:40.339Z,100429.72
2024-02-02T18:51:17.840Z,100432.34
2024-02-02T18:54:08.687Z,100430.53
2024-02-02T18:56:56.573Z,100430.91
2024-02-02T18:59:45.189Z,100424.78
2024-02-02T19:02:35.491Z,100426.34
2024-02-02T19:05:05.715Z,100411.53
2024-02-02T19:07:54.298Z,100423.63
2024-02-02T19:10:44.793Z,100421.59
2024-02-02T19:13:16.127Z,100429.03
2024-02-02T19:15:46.007Z,100414.41
2024-02-02T19:18:18.441Z,100419.63
2024-02-02T19:20:48.757Z,100418.53
2024-02-02T19:23:37.495Z,100411.69
2024-02-02T19:26:08.078Z,100418.59
2024-02-02T19:28:56.138Z,100413.34
2024-02-02T19:31:44.131Z,100425.41
2024-02-02T19:34:18.416Z,100408.69
2024-02-02T19:36:48.631Z,100409.16
2024-02-02T19:39:18.977Z,100412.09
2024-02-02T19:42:07.644Z,100409.13
2024-02-02T19:44:37.795Z,100408.19
2024-02-02T19:47:08.115Z,100409.03
2024-02-02T19:49:41.042Z,100405.00
2024-02-02T19:52:11.099Z,100410.09
2024-02-02T19:55:03.372Z,100396.13
2024-02-02T19:58:02.878Z,100405.59
2024-02-02T20:00:50.157Z,100398.19
2024-02-02T20:03:25.830Z,100405.88
2024-02-02T20:06:08.878Z,100406.13
2024-02-02T20:08:41.127Z,100402.41
2024-02-02T20:11:14.690Z,100389.69
2024-02-02T20:13:45.359Z,100397.78
2024-02-02T20:16:16.643Z,100384.53
2024-02-02T20:18:48.500Z,100378.88
2024-02-02T20:21:21.527Z,100378.75
2024-02-02T20:24:12.354Z,100386.28
2024-02-02T20:26:45.209Z,100369.56
2024-02-02T20:29:17.895Z,100361.09
2024-02-02T20:31:51.669Z,100363.56
2024-02-02T20:34:21.719Z,100367.41
2024-02-02T20:36:55.228Z,100361.28
2024-02-02T20:39:25.208Z,100347.81
2024-02-02T20:42:13.568Z,100343.25
2024-02-02T20:45:04.574Z,100347.81
2024-02-02T20:47:53.862Z,100339.19
2024-02-02T20:50:24.531Z,100349.47
2024-02-02T20:53:14.268Z,100337.16
2024-02-02T20:55:44.047Z,100322.59
2024-02-02T20:58:13.624Z,100337.44
2024-02-02T21:00:43.477Z,100336.59
2024-02-02T21:03:14.317Z,100342.38
2024-02-02T21:05:44.247Z,100337.44
2024-02-02T21:08:33.623Z,100326.03
2024-02-02T21:11:02.920Z,100324.38
2024-02-02T21:13:32.819Z,100325.78
2024-02-02T21:16:21.236Z,100325.00
2024-02-02T21:18:56.440Z,100336.38
2024-02-02T21:21:26.359Z,100328.88
2024-02-02T21:23:57.322Z,100311.38
2024-02-02T21:26:30.551Z,100341.59
2024-02-02T21:29:18.560Z,100334.13
2024-02-02T21:32:08.236Z,100334.72
2024-02-02T21:34:38.712Z,100318.25
2024-02-02T21:37:08.283Z,100319.47
2024-02-02T21:39:41.393Z,100322.28
2024-02-02T21:42:29.791Z,100326.72
2024-02-02T21:44:59.549Z,100323.13
2024-02-02T21:47:29.250Z,100325.25
2024-02-02T21:50:17.771Z,100310.47
2024-02-02T21:53:06.320Z,100318.00
2024-02-02T21:55:37.441Z,100308.31
2024-02-02T21:58:08.841Z,100299.56
2024-02-02T22:00:39.023Z,100318.00
2024-02-02T22:03:09.496Z,100314.63
2024-02-02T22:05:57.566Z,100307.78
2024-02-02T22:08:26.836Z,100296.13
2024-02-02T22:11:16.862Z,100300.28
2024-02-02T22:13:48.275Z,100302.25
2024-02-02T22:16:18.162Z,100297.88
2024-02-02T22:18:50.406Z,100285.06
2024-02-02T22:21:38.620Z,100293.28
2024-02-02T22:24:08.841Z,100291.56
2024-02-02T22:26:40.197Z,100290.38
2024-02-02T22:29:10.298Z,100281.84
2024-02-02T22:31:41.390Z,100261.69
2024-02-02T22:34:11.424Z,100263.16
2024-02-02T22:36:59.447Z,100275.78
2024-02-02T22:39:47.774Z,100270.75
2024-02-02T22:42:38.962Z,100267.44
2024-02-02T22:45:09.834Z,100256.09
2024-02-02T22:47:58.841Z,100261.97
2024-02-02T22:50:28.267Z,100264.44
2024-02-02T22:52:57.866Z,100262.31
2024-02-02T22:55:27.561Z,100246.34
2024-02-02T22:57:58.558Z,100257.28
2024-02-02T23:00:49.207Z,100225.06
2024-02-02T23:03:19.372Z,100244.84
2024-02-02T23:05:49.302Z,100249.59
2024-02-02T23:08:37.303Z,100251.63
2024-02-02T23:11:25.340Z,100242.59
2024-02-02T23:13:55.998Z,100239.44
2024-02-02T23:16:25.784Z,100228.78
2024-02-02T23:19:13.856Z,100226.59
2024-02-02T23:21:43.571Z,100222.50
2024-02-02T23:24:32.041Z,100217.22
2024-02-02T23:27:01.816Z,100213.59
2024-02-02T23:29:51.459Z,100212.28
2024-02-02T23:32:40.475Z,100216.88
2024-02-02T23:35:28.568Z,100210.03
2024-02-02T23:38:16.733Z,100192.56
2024-02-02T23:40:46.554Z,100215.25
2024-02-02T23:43:16.096Z,100218.25
2024-02-02T23:45:46.829Z,100205.97
2024-02-02T23:48:35.275Z,100214.50
2024-02-02T23:51:06.001Z,100215.31
2024-02-02T23:53:36.525Z,100209.03
2024-02-02T23:56:07.120Z,100203.97
2024-02-02T23:58:36.676Z,100197.00
